Time;durP1;ratioP1;P1;durP2;ratioP2;P2;SDS_P1;SDS_P2;PMS_P1;PMS_P2;Temp;Humidity;BMP_temperature;BMP_pressure;BME280_temperature;BME280_humidity;BME280_pressure;Samples;Min_cycle;Max_cycle;Signal;HPM_P1;HPM_P2
2023/01/18 00:01:40;;;;;;;25.90;16.87;;;;;;;;;;4944782;28;20183;-83
2023/01/18 00:04:06;;;;;;;22.50;16.57;;;;;;;;;;4978008;28;20253;-80
2023/01/18 00:06:32;;;;;;;23.93;16.20;;;;;;;;;;4961074;28;20225;-80
2023/01/18 00:08:58;;;;;;;26.80;16.97;;;;;;;;;;4943629;28;20195;-80
2023/01/18 00:11:24;;;;;;;22.30;16.57;;;;;;;;;;4960928;28;20187;-79
2023/01/18 00:13:52;;;;;;;23.83;16.37;;;;;;;;;;4973012;28;20225;-79
2023/01/18 00:16:19;;;;;;;23.80;16.83;;;;;;;;;;4961227;28;20271;-80
2023/01/18 00:18:52;;;;;;;22.37;16.07;;;;;;;;;;4944819;28;20262;-80
2023/01/18 00:21:17;;;;;;;24.67;16.20;;;;;;;;;;4960696;28;20226;-80
2023/01/18 00:23:44;;;;;;;25.60;16.67;;;;;;;;;;4943995;29;20230;-80
2023/01/18 00:26:10;;;;;;;20.93;16.10;;;;;;;;;;4967383;28;20221;-80
2023/01/18 00:28:39;;;;;;;22.50;16.57;;;;;;;;;;4944174;28;20246;-80
2023/01/18 00:31:09;;;;;;;20.63;15.60;;;;;;;;;;4960155;28;20187;-80
2023/01/18 00:33:35;;;;;;;23.70;16.13;;;;;;;;;;4980022;23;20243;-79
2023/01/18 00:36:01;;;;;;;23.03;15.77;;;;;;;;;;4943459;28;20202;-85
2023/01/18 00:38:28;;;;;;;20.37;16.03;;;;;;;;;;4977448;28;20288;-84
2023/01/18 00:40:54;;;;;;;19.83;15.47;;;;;;;;;;4960056;28;20198;-85
2023/01/18 00:43:38;;;;;;;19.43;15.00;;;;;;;;;;4960155;28;20179;-84
2023/01/18 00:46:08;;;;;;;18.33;14.93;;;;;;;;;;4946507;28;20214;-84
2023/01/18 00:48:34;;;;;;;19.13;14.80;;;;;;;;;;4960466;28;20274;-83
2023/01/18 00:51:01;;;;;;;21.73;15.20;;;;;;;;;;4959256;28;20226;-84
2023/01/18 00:53:27;;;;;;;22.63;15.83;;;;;;;;;;4944161;28;20191;-79
2023/01/18 00:55:53;;;;;;;22.20;15.23;;;;;;;;;;4944294;28;20198;-79
2023/01/18 00:58:19;;;;;;;19.57;14.67;;;;;;;;;;4959671;28;20256;-80
2023/01/18 01:00:47;;;;;;;19.63;14.20;;;;;;;;;;4940799;29;20219;-79
2023/01/18 01:03:13;;;;;;;24.00;15.30;;;;;;;;;;4955551;28;20183;-79
2023/01/18 01:08:28;;;;;;;19.77;14.57;;;;;;;;;;4955947;28;20202;-80
2023/01/18 01:11:03;;;;;;;21.27;14.67;;;;;;;;;;4963655;28;20198;-79
2023/01/18 01:27:11;;;;;;;22.23;14.10;;;;;;;;;;4972995;28;20266;-86
2023/01/18 01:29:38;;;;;;;25.57;14.30;;;;;;;;;;4953442;28;20183;-86
2023/01/18 01:32:04;;;;;;;19.47;14.53;;;;;;;;;;4936701;29;20187;-85
2023/01/18 01:34:30;;;;;;;22.77;13.67;;;;;;;;;;4932736;28;20257;-86
2023/01/18 01:36:56;;;;;;;18.07;13.20;;;;;;;;;;4941588;28;20295;-86
2023/01/18 01:39:22;;;;;;;19.23;14.00;;;;;;;;;;4958129;28;20198;-85
2023/01/18 01:41:49;;;;;;;22.80;14.27;;;;;;;;;;4940372;28;20187;-86
2023/01/18 01:44:23;;;;;;;21.40;14.03;;;;;;;;;;4958190;28;20261;-79
2023/01/18 01:47:08;;;;;;;19.10;14.23;;;;;;;;;;4975125;28;20225;-79
2023/01/18 01:49:38;;;;;;;21.73;13.83;;;;;;;;;;4969789;28;20183;-79
2023/01/18 01:52:06;;;;;;;23.27;14.70;;;;;;;;;;4968777;28;20186;-79
2023/01/18 01:54:36;;;;;;;20.83;14.17;;;;;;;;;;4957615;28;20186;-79
2023/01/18 01:57:14;;;;;;;24.13;14.03;;;;;;;;;;4956126;28;20182;-79
2023/01/18 01:59:42;;;;;;;23.30;18.00;;;;;;;;;;4952198;28;20445;-84
2023/01/18 02:02:09;;;;;;;18.90;14.33;;;;;;;;;;4968386;28;20257;-83
2023/01/18 02:04:35;;;;;;;20.77;15.07;;;;;;;;;;4973047;28;20213;-84
2023/01/18 02:07:01;;;;;;;21.33;13.77;;;;;;;;;;4957701;28;20206;-84
2023/01/18 02:09:27;;;;;;;17.80;14.10;;;;;;;;;;4942124;28;20190;-83
2023/01/18 02:11:54;;;;;;;19.10;14.10;;;;;;;;;;4941756;28;20194;-84
2023/01/18 02:14:26;;;;;;;19.60;13.70;;;;;;;;;;4954467;28;20190;-84
2023/01/18 02:16:59;;;;;;;19.30;13.23;;;;;;;;;;4957723;28;20182;-84
2023/01/18 02:19:43;;;;;;;20.67;14.03;;;;;;;;;;4967054;28;20354;-83
2023/01/18 02:22:20;;;;;;;20.20;14.17;;;;;;;;;;4977530;28;20242;-83
2023/01/18 02:25:08;;;;;;;22.57;13.97;;;;;;;;;;4959639;28;20190;-83
2023/01/18 02:27:50;;;;;;;25.83;18.38;;;;;;;;;;4947663;28;20581;-83
2023/01/18 02:30:38;;;;;;;25.00;19.73;;;;;;;;;;4954300;28;20444;-84
2023/01/18 02:33:08;;;;;;;22.50;15.07;;;;;;;;;;4917487;28;1093171;-79
2023/01/18 02:35:49;;;;;;;23.85;18.98;;;;;;;;;;4957117;28;20464;-79
2023/01/18 02:38:18;;;;;;;22.10;19.13;;;;;;;;;;4957257;28;20477;-79
2023/01/18 02:41:04;;;;;;;20.27;14.90;;;;;;;;;;4958536;28;20182;-79
2023/01/18 02:46:32;;;;;;;18.77;13.83;;;;;;;;;;4975533;28;20209;-79
2023/01/18 02:49:00;;;;;;;20.50;13.70;;;;;;;;;;4962326;28;20194;-86
2023/01/18 02:51:26;;;;;;;19.37;13.00;;;;;;;;;;4975083;28;20218;-86
2023/01/18 02:53:52;;;;;;;21.20;14.03;;;;;;;;;;4942591;28;20209;-87
2023/01/18 02:56:21;;;;;;;21.60;14.10;;;;;;;;;;4975141;28;20206;-86
2023/01/18 02:58:52;;;;;;;17.90;13.67;;;;;;;;;;4958491;28;20174;-87
2023/01/18 03:01:25;;;;;;;20.20;13.50;;;;;;;;;;4958320;28;20183;-86
2023/01/18 03:03:52;;;;;;;21.00;15.10;;;;;;;;;;4975298;28;20441;-86
2023/01/18 03:06:20;;;;;;;24.02;20.33;;;;;;;;;;4956772;28;20446;-78
2023/01/18 03:08:48;;;;;;;23.70;19.77;;;;;;;;;;4957447;28;20428;-79
2023/01/18 03:11:20;;;;;;;23.57;15.73;;;;;;;;;;4958118;28;20205;-79
2023/01/18 03:13:54;;;;;;;22.00;18.00;;;;;;;;;;4957645;28;20421;-78
2023/01/18 03:16:30;;;;;;;27.02;19.83;;;;;;;;;;4956994;28;20431;-79
2023/01/18 03:19:03;;;;;;;22.70;18.63;;;;;;;;;;4956739;28;20461;-79
2023/01/18 03:21:38;;;;;;;22.08;18.48;;;;;;;;;;4957204;28;20477;-79
2023/01/18 03:24:06;;;;;;;22.90;18.02;;;;;;;;;;4957104;28;20422;-78
2023/01/18 03:26:35;;;;;;;21.05;18.25;;;;;;;;;;4956931;28;20438;-78
2023/01/18 03:34:34;;;;;;;23.48;19.20;;;;;;;;;;4964083;28;20517;-78
2023/01/18 03:37:09;;;;;;;25.40;19.13;;;;;;;;;;4956371;28;20434;-79
2023/01/18 03:39:40;;;;;;;23.13;19.02;;;;;;;;;;4956432;28;20422;-84
2023/01/18 03:42:09;;;;;;;24.85;20.40;;;;;;;;;;4955894;28;20504;-84
2023/01/18 03:44:36;;;;;;;24.05;18.95;;;;;;;;;;4957128;28;20441;-84
2023/01/18 03:47:04;;;;;;;25.13;20.25;;;;;;;;;;4956548;28;20449;-84
2023/01/18 03:49:30;;;;;;;25.85;19.75;;;;;;;;;;4956170;28;20418;-83
2023/01/18 03:52:05;;;;;;;19.33;15.27;;;;;;;;;;4957910;28;20183;-84
2023/01/18 03:54:50;;;;;;;21.60;14.27;;;;;;;;;;4974629;28;20233;-86
2023/01/18 03:57:25;;;;;;;17.67;14.37;;;;;;;;;;4957800;28;20250;-78
2023/01/18 03:59:51;;;;;;;19.33;13.20;;;;;;;;;;4958186;28;20208;-78
2023/01/18 04:02:18;;;;;;;18.30;13.27;;;;;;;;;;4960765;28;20190;-78
2023/01/18 04:04:44;;;;;;;18.10;13.57;;;;;;;;;;4977399;28;20195;-78
2023/01/18 04:07:10;;;;;;;20.00;13.70;;;;;;;;;;4977963;28;20210;-78
2023/01/18 04:09:36;;;;;;;18.37;13.10;;;;;;;;;;4944725;28;20245;-78
2023/01/18 04:12:02;;;;;;;19.47;14.00;;;;;;;;;;4945900;28;20219;-78
2023/01/18 04:14:28;;;;;;;21.37;15.00;;;;;;;;;;4978127;28;20271;-86
2023/01/18 04:16:54;;;;;;;21.95;16.75;;;;;;;;;;4944660;28;20517;-86
2023/01/18 04:19:20;;;;;;;23.60;14.93;;;;;;;;;;4961112;28;20182;-86
2023/01/18 04:21:46;;;;;;;21.30;14.83;;;;;;;;;;4960683;28;20227;-86
2023/01/18 04:24:12;;;;;;;19.63;14.23;;;;;;;;;;4945147;28;20249;-86
2023/01/18 04:26:38;;;;;;;19.57;15.17;;;;;;;;;;4944944;28;20214;-86
2023/01/18 04:29:04;;;;;;;19.80;14.90;;;;;;;;;;4945298;28;20197;-79
2023/01/18 04:31:30;;;;;;;22.63;14.93;;;;;;;;;;4960334;28;20187;-78
2023/01/18 04:33:56;;;;;;;22.97;15.07;;;;;;;;;;4960275;28;20187;-79
2023/01/18 04:36:22;;;;;;;24.17;14.77;;;;;;;;;;4959974;28;20198;-79
2023/01/18 04:38:58;;;;;;;26.02;21.08;;;;;;;;;;4976989;28;20413;-78
2023/01/18 04:41:24;;;;;;;25.95;21.10;;;;;;;;;;4976598;28;20414;-79
2023/01/18 04:43:50;;;;;;;27.05;21.88;;;;;;;;;;4958573;28;20550;-78
2023/01/18 04:46:16;;;;;;;27.38;21.58;;;;;;;;;;4965326;28;20440;-78
2023/01/18 04:48:42;;;;;;;28.08;22.33;;;;;;;;;;4964013;28;20425;-78
2023/01/18 04:51:12;;;;;;;26.90;21.60;;;;;;;;;;4959102;28;20426;-78
2023/01/18 04:53:39;;;;;;;24.60;21.10;;;;;;;;;;4950757;28;20429;-78
2023/01/18 04:56:05;;;;;;;25.17;21.17;;;;;;;;;;4975085;28;20428;-78
2023/01/18 04:58:31;;;;;;;25.75;20.23;;;;;;;;;;4943150;28;20465;-78
2023/01/18 05:01:00;;;;;;;27.95;21.67;;;;;;;;;;4975840;28;20422;-79
2023/01/18 05:03:26;;;;;;;24.53;20.73;;;;;;;;;;4959008;28;20422;-79
2023/01/18 05:05:53;;;;;;;24.73;21.30;;;;;;;;;;4958643;28;20442;-79
2023/01/18 05:08:19;;;;;;;26.20;21.60;;;;;;;;;;4975961;28;20454;-79
2023/01/18 05:10:45;;;;;;;26.75;20.23;;;;;;;;;;4958779;28;20429;-78
2023/01/18 05:13:11;;;;;;;26.02;20.40;;;;;;;;;;4942681;28;20422;-79
2023/01/18 05:15:37;;;;;;;25.52;20.63;;;;;;;;;;4958829;28;20434;-78
2023/01/18 05:18:05;;;;;;;24.80;19.88;;;;;;;;;;4957529;28;20423;-78
2023/01/18 05:20:31;;;;;;;25.60;20.88;;;;;;;;;;4943153;28;20421;-79
2023/01/18 05:22:57;;;;;;;28.37;21.30;;;;;;;;;;4942941;28;20430;-79
2023/01/18 05:25:23;;;;;;;24.92;19.92;;;;;;;;;;4958755;28;20493;-78
2023/01/18 05:27:49;;;;;;;24.42;19.88;;;;;;;;;;4959024;28;20418;-78
2023/01/18 05:30:15;;;;;;;29.10;21.42;;;;;;;;;;4957969;28;20476;-78
2023/01/18 05:32:41;;;;;;;27.13;20.00;;;;;;;;;;4970506;28;20423;-78
2023/01/18 05:35:08;;;;;;;22.73;15.57;;;;;;;;;;4975802;28;20261;-78
2023/01/18 05:37:34;;;;;;;21.27;14.60;;;;;;;;;;4990591;28;20195;-83
2023/01/18 05:40:00;;;;;;;25.20;20.20;;;;;;;;;;4955094;28;20465;-83
2023/01/18 05:42:26;;;;;;;25.55;19.95;;;;;;;;;;4974350;28;20457;-84
2023/01/18 05:44:52;;;;;;;22.13;15.37;;;;;;;;;;4964300;28;20185;-83
2023/01/18 05:47:18;;;;;;;24.08;19.55;;;;;;;;;;4941791;28;20442;-84
2023/01/18 05:49:44;;;;;;;23.55;20.17;;;;;;;;;;4942521;28;20518;-83
2023/01/18 05:52:10;;;;;;;28.00;20.63;;;;;;;;;;4942199;28;20441;-82
2023/01/18 05:54:36;;;;;;;25.63;19.27;;;;;;;;;;4958309;28;20414;-78
2023/01/18 05:57:02;;;;;;;25.58;19.55;;;;;;;;;;4923501;29;20483;-78
2023/01/18 05:59:28;;;;;;;21.83;16.38;;;;;;;;;;4958540;28;20513;-77
2023/01/18 06:01:55;;;;;;;24.92;19.40;;;;;;;;;;4989389;28;20422;-78
2023/01/18 06:04:21;;;;;;;25.08;19.52;;;;;;;;;;4942470;28;20414;-77
2023/01/18 06:06:47;;;;;;;26.58;19.60;;;;;;;;;;4969982;28;20442;-78
2023/01/18 06:09:13;;;;;;;26.90;20.73;;;;;;;;;;4942571;28;20425;-77
2023/01/18 06:11:39;;;;;;;25.92;21.00;;;;;;;;;;4941691;28;20406;-78
2023/01/18 06:14:05;;;;;;;25.73;20.53;;;;;;;;;;4974289;28;20469;-78
2023/01/18 06:16:31;;;;;;;25.85;20.80;;;;;;;;;;4958144;28;20422;-79
2023/01/18 06:18:57;;;;;;;24.50;19.85;;;;;;;;;;4942324;28;20415;-78
2023/01/18 06:21:23;;;;;;;25.92;20.83;;;;;;;;;;4957866;28;20437;-79
2023/01/18 06:23:49;;;;;;;23.88;17.40;;;;;;;;;;4958411;28;20457;-79
2023/01/18 06:26:15;;;;;;;24.97;19.33;;;;;;;;;;4954959;28;20443;-86
2023/01/18 06:28:41;;;;;;;27.30;21.38;;;;;;;;;;4966579;28;20500;-85
2023/01/18 06:31:07;;;;;;;26.88;20.77;;;;;;;;;;4941551;28;20430;-86
2023/01/18 06:33:33;;;;;;;27.45;21.58;;;;;;;;;;4956419;28;20545;-86
2023/01/18 06:36:00;;;;;;;27.08;20.55;;;;;;;;;;4956039;28;20454;-85
2023/01/18 06:38:26;;;;;;;25.83;21.83;;;;;;;;;;4940845;28;20440;-86
2023/01/18 06:40:52;;;;;;;28.60;21.88;;;;;;;;;;4957054;28;20419;-85
2023/01/18 06:43:18;;;;;;;28.40;21.17;;;;;;;;;;4957794;28;20419;-85
2023/01/18 06:45:44;;;;;;;26.05;21.25;;;;;;;;;;4941159;28;20445;-85
2023/01/18 06:48:11;;;;;;;24.15;19.80;;;;;;;;;;4961783;23;20494;-82
2023/01/18 06:50:37;;;;;;;25.45;20.90;;;;;;;;;;4947016;28;20465;-82
2023/01/18 06:53:03;;;;;;;23.77;20.52;;;;;;;;;;4960718;28;20420;-82
2023/01/18 06:55:29;;;;;;;23.30;20.15;;;;;;;;;;4956945;28;20410;-82
2023/01/18 06:57:55;;;;;;;22.70;17.83;;;;;;;;;;4941653;28;20491;-82
2023/01/18 07:00:22;;;;;;;22.43;15.27;;;;;;;;;;4942064;28;20237;-82
2023/01/18 07:02:50;;;;;;;20.40;15.23;;;;;;;;;;4957770;28;20186;-82
2023/01/18 07:05:16;;;;;;;22.00;15.43;;;;;;;;;;4957756;28;20229;-82
2023/01/18 07:07:44;;;;;;;24.88;19.85;;;;;;;;;;4961745;28;20419;-82
2023/01/18 07:10:10;;;;;;;21.80;18.20;;;;;;;;;;4957736;28;20445;-82
2023/01/18 07:12:36;;;;;;;20.53;15.50;;;;;;;;;;4957595;28;20186;-82
2023/01/18 07:15:05;;;;;;;23.98;18.73;;;;;;;;;;4973565;28;20422;-82
2023/01/18 07:17:31;;;;;;;28.02;20.90;;;;;;;;;;4956975;28;20542;-78
2023/01/18 07:19:57;;;;;;;28.27;20.77;;;;;;;;;;4957086;28;20425;-78
2023/01/18 07:22:23;;;;;;;23.25;19.92;;;;;;;;;;4957017;28;20421;-78
2023/01/18 07:24:49;;;;;;;22.58;19.35;;;;;;;;;;4972891;28;20438;-78
2023/01/18 07:27:15;;;;;;;24.83;17.88;;;;;;;;;;4972827;28;20434;-78
2023/01/18 07:29:41;;;;;;;22.43;16.70;;;;;;;;;;4973730;28;20515;-78
2023/01/18 07:32:07;;;;;;;22.15;16.23;;;;;;;;;;4973119;28;20418;-78
2023/01/18 07:34:33;;;;;;;18.88;14.82;;;;;;;;;;4957548;28;20406;-89
2023/01/18 07:37:00;;;;;;;20.25;15.43;;;;;;;;;;4976874;28;20417;-90
2023/01/18 07:39:26;;;;;;;20.05;15.10;;;;;;;;;;4960733;28;20498;-89
2023/01/18 07:41:52;;;;;;;21.05;15.70;;;;;;;;;;4972163;28;20426;-90
2023/01/18 07:44:18;;;;;;;19.48;14.90;;;;;;;;;;4960715;28;20406;-89
2023/01/18 07:46:44;;;;;;;19.23;15.68;;;;;;;;;;4944577;28;20445;-90
2023/01/18 07:49:10;;;;;;;22.40;15.50;;;;;;;;;;4960642;28;20470;-82
2023/01/18 07:51:36;;;;;;;23.38;15.98;;;;;;;;;;4960321;28;20414;-82
2023/01/18 07:54:02;;;;;;;19.13;15.60;;;;;;;;;;4944348;28;20437;-82
2023/01/18 07:56:29;;;;;;;22.70;16.13;;;;;;;;;;4960139;28;20476;-82
2023/01/18 07:58:55;;;;;;;24.02;15.65;;;;;;;;;;4964493;28;20425;-82
2023/01/18 08:01:21;;;;;;;19.63;15.88;;;;;;;;;;4976124;28;20417;-82
2023/01/18 08:03:48;;;;;;;21.73;16.20;;;;;;;;;;4976266;28;20411;-82
2023/01/18 08:06:18;;;;;;;20.48;15.77;;;;;;;;;;4976061;28;20438;-81
2023/01/18 08:08:44;;;;;;;18.95;14.60;;;;;;;;;;4976235;28;20410;-81
2023/01/18 08:11:11;;;;;;;20.42;16.25;;;;;;;;;;4977128;28;20410;-81
2023/01/18 08:13:37;;;;;;;20.73;15.82;;;;;;;;;;4976043;28;20482;-81
2023/01/18 08:16:05;;;;;;;20.05;15.27;;;;;;;;;;4975611;28;20453;-81
2023/01/18 08:18:31;;;;;;;19.65;15.13;;;;;;;;;;4962429;28;20430;-81
2023/01/18 08:20:57;;;;;;;18.73;15.25;;;;;;;;;;4978618;28;20475;-81
2023/01/18 08:23:23;;;;;;;18.92;15.10;;;;;;;;;;4963390;28;20412;-89
2023/01/18 08:25:50;;;;;;;16.73;14.87;;;;;;;;;;4961416;28;20520;-89
2023/01/18 08:28:16;;;;;;;18.17;14.68;;;;;;;;;;4979177;28;20417;-89
2023/01/18 08:30:43;;;;;;;19.25;14.82;;;;;;;;;;4979035;28;20408;-89
2023/01/18 08:33:10;;;;;;;22.08;15.13;;;;;;;;;;4979194;28;20404;-90
2023/01/18 08:35:40;;;;;;;19.13;14.75;;;;;;;;;;4964786;28;20489;-90
2023/01/18 08:38:06;;;;;;;19.80;14.65;;;;;;;;;;4959910;28;20419;-89
2023/01/18 08:40:32;;;;;;;19.02;14.50;;;;;;;;;;4950525;28;20484;-81
2023/01/18 08:42:58;;;;;;;19.05;14.38;;;;;;;;;;4960385;28;20414;-81
2023/01/18 08:45:25;;;;;;;19.20;12.73;;;;;;;;;;4959716;28;20206;-81
2023/01/18 08:47:55;;;;;;;17.03;12.03;;;;;;;;;;4958696;28;20237;-81
2023/01/18 08:50:22;;;;;;;20.67;12.03;;;;;;;;;;4944591;28;20203;-81
2023/01/18 08:52:48;;;;;;;19.98;14.48;;;;;;;;;;4976846;28;20470;-81
2023/01/18 08:55:14;;;;;;;18.30;13.80;;;;;;;;;;4944963;28;20458;-81
2023/01/18 08:57:40;;;;;;;19.23;14.38;;;;;;;;;;4959569;28;20409;-79
2023/01/18 09:00:07;;;;;;;19.27;14.07;;;;;;;;;;4959989;28;20418;-79
2023/01/18 09:02:33;;;;;;;17.60;13.27;;;;;;;;;;4944223;28;20486;-79
2023/01/18 09:04:59;;;;;;;16.27;12.65;;;;;;;;;;4943295;28;20465;-79
2023/01/18 09:07:26;;;;;;;13.23;10.80;;;;;;;;;;4959585;28;20520;-79
2023/01/18 09:09:52;;;;;;;15.43;10.00;;;;;;;;;;4979424;28;20182;-79
2023/01/18 09:12:19;;;;;;;18.53;10.27;;;;;;;;;;4963962;28;20178;-82
2023/01/18 09:14:45;;;;;;;13.10;9.77;;;;;;;;;;4979418;28;20177;-82
2023/01/18 09:17:11;;;;;;;17.47;10.00;;;;;;;;;;4979272;28;20239;-83
2023/01/18 09:19:37;;;;;;;16.67;10.87;;;;;;;;;;4979101;28;20178;-83
2023/01/18 09:22:05;;;;;;;17.73;10.57;;;;;;;;;;4996386;28;20178;-83
2023/01/18 09:24:31;;;;;;;17.97;11.43;;;;;;;;;;4963574;28;20192;-83
2023/01/18 09:26:57;;;;;;;16.97;11.70;;;;;;;;;;4963029;28;20232;-83
2023/01/18 09:29:23;;;;;;;15.40;10.90;;;;;;;;;;4979530;28;20197;-90
2023/01/18 09:31:52;;;;;;;20.20;11.40;;;;;;;;;;4963395;28;20174;-90
2023/01/18 09:34:18;;;;;;;15.80;10.33;;;;;;;;;;4963489;28;20182;-91
2023/01/18 09:36:44;;;;;;;13.07;9.97;;;;;;;;;;4979401;28;20284;-90
2023/01/18 09:39:10;;;;;;;13.20;9.83;;;;;;;;;;4963413;28;20186;-90
2023/01/18 09:41:38;;;;;;;13.30;9.40;;;;;;;;;;4978803;28;20217;-91
2023/01/18 09:44:17;;;;;;;12.23;8.37;;;;;;;;;;4978926;28;20186;-90
2023/01/18 09:46:43;;;;;;;11.67;8.63;;;;;;;;;;4978750;28;20209;-83
2023/01/18 09:49:17;;;;;;;10.77;7.70;;;;;;;;;;4962514;28;20236;-84
2023/01/18 09:51:56;;;;;;;11.73;8.10;;;;;;;;;;4975633;28;20217;-83
2023/01/18 09:54:32;;;;;;;9.23;7.80;;;;;;;;;;4959250;28;20198;-83
2023/01/18 09:57:36;;;;;;;9.90;7.80;;;;;;;;;;4976203;28;20182;-84
2023/01/18 10:00:04;;;;;;;12.13;8.23;;;;;;;;;;4901265;29;20184;-83
2023/01/18 10:02:37;;;;;;;10.70;8.90;;;;;;;;;;4917029;29;20195;-83
2023/01/18 10:05:11;;;;;;;10.60;8.27;;;;;;;;;;4932550;28;20186;-83
2023/01/18 10:07:44;;;;;;;11.80;8.90;;;;;;;;;;4958970;28;20217;-83
2023/01/18 10:10:14;;;;;;;12.03;8.30;;;;;;;;;;4976273;28;20177;-83
2023/01/18 10:12:45;;;;;;;12.57;8.47;;;;;;;;;;4958724;28;20198;-83
2023/01/18 10:15:19;;;;;;;11.80;8.83;;;;;;;;;;4959392;28;20183;-82
2023/01/18 10:17:46;;;;;;;12.27;8.97;;;;;;;;;;4959061;28;20210;-82
2023/01/18 10:20:14;;;;;;;11.60;8.67;;;;;;;;;;4958935;28;20182;-80
2023/01/18 10:22:46;;;;;;;12.90;8.10;;;;;;;;;;4958586;28;20180;-80
2023/01/18 10:25:40;;;;;;;9.57;7.73;;;;;;;;;;4958560;28;20183;-80
2023/01/18 10:28:25;;;;;;;9.87;7.17;;;;;;;;;;4956958;28;20265;-81
2023/01/18 10:31:00;;;;;;;10.53;7.67;;;;;;;;;;4959298;28;20270;-80
2023/01/18 10:33:28;;;;;;;12.80;8.20;;;;;;;;;;4958481;28;20174;-80
2023/01/18 10:36:00;;;;;;;8.23;7.33;;;;;;;;;;4975786;28;20209;-90
2023/01/18 10:38:27;;;;;;;10.67;7.37;;;;;;;;;;4959108;28;20179;-90
2023/01/18 10:41:00;;;;;;;12.50;7.50;;;;;;;;;;4959427;28;20178;-91
2023/01/18 10:43:28;;;;;;;9.40;7.43;;;;;;;;;;4958937;28;20182;-91
2023/01/18 10:45:54;;;;;;;13.77;7.77;;;;;;;;;;4958984;28;20245;-90
2023/01/18 10:48:20;;;;;;;10.23;7.10;;;;;;;;;;4959177;28;20226;-91
2023/01/18 10:50:51;;;;;;;9.23;6.87;;;;;;;;;;4959233;28;20186;-91
2023/01/18 10:53:24;;;;;;;8.87;7.67;;;;;;;;;;4959221;28;20178;-81
2023/01/18 10:56:00;;;;;;;9.77;7.43;;;;;;;;;;4958150;28;20194;-80
2023/01/18 10:58:29;;;;;;;9.97;7.30;;;;;;;;;;4958534;28;20186;-81
2023/01/18 11:00:56;;;;;;;11.23;7.57;;;;;;;;;;4958113;28;20185;-81
2023/01/18 11:03:23;;;;;;;7.97;7.00;;;;;;;;;;4974400;28;20256;-80
2023/01/18 11:05:49;;;;;;;10.03;6.83;;;;;;;;;;4974709;28;20221;-81
2023/01/18 11:08:30;;;;;;;9.43;7.30;;;;;;;;;;4942310;28;20249;-80
2023/01/18 11:11:02;;;;;;;9.17;7.70;;;;;;;;;;4956781;28;20190;-84
2023/01/18 11:13:43;;;;;;;10.93;7.27;;;;;;;;;;4972401;28;20189;-84
2023/01/18 11:16:11;;;;;;;11.90;6.90;;;;;;;;;;4981209;28;20181;-83
2023/01/18 11:18:37;;;;;;;8.73;6.80;;;;;;;;;;4981788;28;20186;-84
2023/01/18 11:21:08;;;;;;;7.83;6.13;;;;;;;;;;4981712;28;20185;-84
2023/01/18 11:23:35;;;;;;;10.07;6.20;;;;;;;;;;4981602;28;20182;-84
2023/01/18 11:26:06;;;;;;;8.10;6.67;;;;;;;;;;4981369;28;20259;-83
2023/01/18 11:28:38;;;;;;;7.67;6.17;;;;;;;;;;4981283;28;20216;-83
2023/01/18 11:31:15;;;;;;;9.87;6.73;;;;;;;;;;4981296;28;20205;-83
2023/01/18 11:33:48;;;;;;;10.83;6.90;;;;;;;;;;4981172;28;20181;-83
2023/01/18 11:36:15;;;;;;;10.17;6.73;;;;;;;;;;4981107;28;20190;-83
2023/01/18 11:38:41;;;;;;;10.73;6.97;;;;;;;;;;4981355;28;20186;-83
2023/01/18 11:41:10;;;;;;;11.67;7.13;;;;;;;;;;4965059;28;20190;-83
2023/01/18 11:43:38;;;;;;;10.23;7.67;;;;;;;;;;4977826;28;20191;-83
2023/01/18 11:46:07;;;;;;;11.07;7.47;;;;;;;;;;4962040;28;20217;-83
2023/01/18 11:48:52;;;;;;;10.57;7.63;;;;;;;;;;4961334;28;20325;-83
2023/01/18 11:51:22;;;;;;;8.47;7.00;;;;;;;;;;4978758;28;20241;-83
2023/01/18 11:53:56;;;;;;;10.57;8.40;;;;;;;;;;4961405;28;20277;-83
2023/01/18 11:56:28;;;;;;;10.60;7.73;;;;;;;;;;4961332;28;20190;-83
2023/01/18 11:58:54;;;;;;;12.40;7.83;;;;;;;;;;4978342;28;20191;-83
2023/01/18 12:01:20;;;;;;;13.57;7.67;;;;;;;;;;4945339;28;20290;-83
2023/01/18 12:03:52;;;;;;;10.07;7.70;;;;;;;;;;4978330;28;20619;-82
2023/01/18 12:06:18;;;;;;;10.10;7.70;;;;;;;;;;4977503;28;20309;-82
2023/01/18 12:08:48;;;;;;;12.10;7.70;;;;;;;;;;4977627;28;20217;-83
2023/01/18 12:11:34;;;;;;;12.20;8.20;;;;;;;;;;4977411;28;20183;-82
2023/01/18 12:14:02;;;;;;;11.00;8.03;;;;;;;;;;4976965;28;20201;-82
2023/01/18 12:16:47;;;;;;;11.90;7.80;;;;;;;;;;4945779;28;20210;-79
2023/01/18 12:19:14;;;;;;;12.07;8.37;;;;;;;;;;4977351;28;20277;-80
2023/01/18 12:21:58;;;;;;;10.83;8.03;;;;;;;;;;4978948;28;20182;-80
2023/01/18 12:24:24;;;;;;;9.97;7.70;;;;;;;;;;4980148;28;20246;-79
2023/01/18 12:26:53;;;;;;;10.93;8.10;;;;;;;;;;4983289;28;20214;-79
2023/01/18 12:29:25;;;;;;;10.47;7.97;;;;;;;;;;4960834;28;20203;-81
2023/01/18 12:32:00;;;;;;;10.67;8.00;;;;;;;;;;4969437;28;20200;-80
2023/01/18 12:34:41;;;;;;;11.37;8.33;;;;;;;;;;4976832;28;20194;-82
2023/01/18 12:37:11;;;;;;;11.67;7.33;;;;;;;;;;4960962;28;20187;-82
2023/01/18 12:40:06;;;;;;;10.27;7.40;;;;;;;;;;4960882;28;20179;-82
2023/01/18 12:42:48;;;;;;;10.17;7.53;;;;;;;;;;4925677;28;20269;-82
2023/01/18 12:45:21;;;;;;;10.43;7.30;;;;;;;;;;4977621;28;20179;-82
2023/01/18 12:48:00;;;;;;;9.37;6.90;;;;;;;;;;4973800;23;20238;-78
2023/01/18 12:50:36;;;;;;;10.07;6.70;;;;;;;;;;4960326;28;20190;-85
2023/01/18 12:53:25;;;;;;;8.03;6.87;;;;;;;;;;4959918;28;20198;-85
2023/01/18 12:55:53;;;;;;;9.70;6.90;;;;;;;;;;4952712;28;20186;-85
2023/01/18 12:58:23;;;;;;;10.23;6.63;;;;;;;;;;4960429;28;20179;-85
2023/01/18 13:01:03;;;;;;;8.83;7.00;;;;;;;;;;4959814;28;20233;-85
2023/01/18 13:03:31;;;;;;;9.33;7.10;;;;;;;;;;4959705;28;20330;-84
2023/01/18 13:05:59;;;;;;;11.10;6.40;;;;;;;;;;4959753;28;20221;-78
2023/01/18 13:08:41;;;;;;;9.17;6.30;;;;;;;;;;4959749;28;20237;-78
2023/01/18 13:11:07;;;;;;;9.83;6.13;;;;;;;;;;4959688;28;20182;-78
2023/01/18 13:13:34;;;;;;;11.30;6.20;;;;;;;;;;4959539;28;20198;-78
2023/01/18 13:16:08;;;;;;;9.83;6.63;;;;;;;;;;4959480;28;20183;-78
2023/01/18 13:18:55;;;;;;;6.30;5.50;;;;;;;;;;4959714;28;20193;-78
2023/01/18 13:21:21;;;;;;;7.17;5.63;;;;;;;;;;4960108;28;20186;-78
2023/01/18 13:23:54;;;;;;;9.63;5.87;;;;;;;;;;4960190;28;20274;-78
2023/01/18 13:26:21;;;;;;;8.30;5.27;;;;;;;;;;4959613;28;20210;-78
2023/01/18 13:28:47;;;;;;;12.53;5.27;;;;;;;;;;4960289;28;20178;-78
2023/01/18 13:31:13;;;;;;;8.73;5.53;;;;;;;;;;4959512;28;20175;-78
2023/01/18 13:33:42;;;;;;;8.30;5.13;;;;;;;;;;4959511;28;20183;-78
2023/01/18 13:36:13;;;;;;;9.37;5.37;;;;;;;;;;4959514;28;20285;-78
2023/01/18 13:38:47;;;;;;;9.50;6.03;;;;;;;;;;4960158;28;20174;-78
2023/01/18 13:41:15;;;;;;;11.60;5.53;;;;;;;;;;4946494;28;20205;-78
2023/01/18 13:43:45;;;;;;;8.23;6.17;;;;;;;;;;4960107;28;20200;-78
2023/01/18 13:46:14;;;;;;;8.93;5.83;;;;;;;;;;4959232;28;20221;-78
2023/01/18 13:48:43;;;;;;;10.47;6.37;;;;;;;;;;4959254;28;20231;-78
2023/01/18 13:51:10;;;;;;;12.67;6.10;;;;;;;;;;4959057;28;20174;-78
2023/01/18 13:53:49;;;;;;;9.93;5.90;;;;;;;;;;4959289;28;20321;-78
2023/01/18 13:56:22;;;;;;;7.33;6.20;;;;;;;;;;4959192;28;20277;-79
2023/01/18 13:58:53;;;;;;;9.47;6.10;;;;;;;;;;4959030;28;20214;-78
2023/01/18 14:01:23;;;;;;;11.17;6.27;;;;;;;;;;4976150;28;20254;-79
2023/01/18 14:03:50;;;;;;;7.97;6.13;;;;;;;;;;4958848;28;20178;-78
2023/01/18 14:06:24;;;;;;;8.70;5.93;;;;;;;;;;4958800;28;20214;-78
2023/01/18 14:08:52;;;;;;;9.10;6.10;;;;;;;;;;4958977;28;20185;-78
2023/01/18 14:11:38;;;;;;;7.30;5.63;;;;;;;;;;4958850;28;20269;-78
2023/01/18 14:14:14;;;;;;;7.33;5.70;;;;;;;;;;4958735;28;20179;-83
2023/01/18 14:16:54;;;;;;;9.53;6.23;;;;;;;;;;4975784;28;20181;-82
2023/01/18 14:19:22;;;;;;;7.97;6.27;;;;;;;;;;4958761;28;20191;-82
2023/01/18 14:22:06;;;;;;;8.83;5.83;;;;;;;;;;4958410;28;20179;-83
2023/01/18 14:24:39;;;;;;;8.57;5.73;;;;;;;;;;4958504;28;20178;-82
2023/01/18 14:27:08;;;;;;;6.60;5.33;;;;;;;;;;4958575;28;20211;-83
2023/01/18 14:29:37;;;;;;;11.47;5.80;;;;;;;;;;4958784;28;20194;-78
2023/01/18 14:32:05;;;;;;;6.77;5.00;;;;;;;;;;4975621;28;20261;-78
2023/01/18 14:34:37;;;;;;;6.87;5.20;;;;;;;;;;4958812;28;20186;-78
2023/01/18 14:37:04;;;;;;;8.47;4.80;;;;;;;;;;4958374;28;20186;-78
2023/01/18 14:39:32;;;;;;;8.43;5.03;;;;;;;;;;4958738;28;20193;-78
2023/01/18 14:42:05;;;;;;;7.63;4.33;;;;;;;;;;4958743;28;20214;-78
2023/01/18 14:44:39;;;;;;;6.97;4.60;;;;;;;;;;4958329;28;20186;-78
2023/01/18 14:47:11;;;;;;;6.07;5.00;;;;;;;;;;4975501;28;20205;-78
2023/01/18 14:49:41;;;;;;;9.35;5.35;;;;;;;;;;4957673;28;20442;-78
2023/01/18 14:52:07;;;;;;;6.70;4.50;;;;;;;;;;4958402;28;20193;-78
2023/01/18 14:54:33;;;;;;;6.20;4.90;;;;;;;;;;4954720;28;20270;-78
2023/01/18 14:57:00;;;;;;;7.10;4.60;;;;;;;;;;4939182;29;20247;-78
2023/01/18 14:59:28;;;;;;;7.27;4.83;;;;;;;;;;4939119;29;20188;-78
2023/01/18 15:01:58;;;;;;;5.50;4.30;;;;;;;;;;4954937;29;20186;-78